Parkman, WY (82838)

4:44 PM MDT on September 01, 2014 (GMT -0600)
KWYSHERI2 | Change Station
CLOSE
Current Station
Personal Weather Station
Location: Sheridan, WY
Elevation: 3828 ft
Nearby Weather Stations

Elev 3828 ft 44.81 °N, 106.98 °W | Updated 1 minute ago

Clear
Clear
70.3 °F
Feels Like 76 °F
N
1.0
Wind Variable Wind from NNE
Gusts 1.0 mph

Today
High -- | Low -- °F
--% Chance of Precip.
Yesterday
High -- | Low -- °F
Precip. -- in
6:31 AM 7:46 PM
Waxing Crescent, 45% visible
Pressure 29.91 in
Visibility 10.0 miles
Clouds Clear
Heat Index 76 °F
Dew Point 34 °F
Humidity 26%
Rainfall 0.07 in
Snow Depth Not available.
UV 5 out of 12
Pollen 7.30 out of 12
Air Quality Not available.
Flu Activity Not available.
METAR KSHR 012153Z AUTO 33010G16KT 10SM CLR 20/06 A2998 RMK AO2 SLP129 T02000056

More Conditions Fewer Conditions

Pressure 29.91 in
Visibility 10.0 miles
Clouds Clear
Heat Index 76 °F
Dew Point 34 °F
Humidity 26%
Rainfall 0.07 in
Snow Depth Not available.
UV 5 out of 12
Pollen 7.30 out of 12
Air Quality Not available.
Flu Activity Not available.
METAR KSHR 012153Z AUTO 33010G16KT 10SM CLR 20/06 A2998 RMK AO2 SLP129 T02000056

More Conditions Fewer Conditions

10-Day Weather Forecast

Almanac

Astronomy

Sep. 01, 2014 Rise Set
Actual Time 6:31 AM MDT 7:46 PM MDT
Civil Twilight 6:01 AM MDT 8:16 PM MDT
Nautical Twilight 5:24 AM MDT 8:52 PM MDT
Astronomical Twilight 4:45 AM MDT 9:31 PM MDT
Moon 1:37 PM MDT 11:31 PM MDT
Length of Visible Light 14h 15m
Length of Day
13h 14m
Tomorrow will be 3m 2s shorter.
Waxing Crescent, 45% of the Moon is Illuminated
Today
Waxing Crescent
Sep 2
First Quarter
Sep 8
Full
Sep 15
Last Quarter
Sep 24
New

Today's Extremes

State Highs State Lows

Community

WunderPhotos

Upload Photos

1,749,427 photos uploaded!

Nearby

Snow Depth

Station Depth Elevation
Casper Mountain 0 in 7850 ft
Thumb Divide 0 in 7980 ft
Gunsight Pass 4 in 9820 ft
Lewis Lake Divide 0 in 7850 ft
Gros Ventre Summit 0 in 8750 ft

Earthquake Activity

City Distance Mag. Time & Date
No recent earthquake activity has been reported nearby.
Minimum magnitude displayed is 2.5.

Coastal Water Temperatures

Place Temperature
No Stations Reporting

Nearby Weather Stations